Time;durP1;ratioP1;P1;durP2;ratioP2;P2;SDS_P1;SDS_P2;PMS_P1;PMS_P2;Temp;Humidity;BMP_temperature;BMP_pressure;BME280_temperature;BME280_humidity;BME280_pressure;Samples;Min_cycle;Max_cycle;Signal;HPM_P1;HPM_P2
2021/05/22 00:00:31;;;;;;;1.70;1.60;;;11.40;99.90;;;;;;5076149;28;20246;-45
2021/05/22 00:02:57;;;;;;;1.67;1.57;;;11.40;99.90;;;;;;5075628;28;20182;-47
2021/05/22 00:05:22;;;;;;;1.97;1.83;;;11.40;99.90;;;;;;5075578;28;20267;-48
2021/05/22 00:07:49;;;;;;;1.83;1.73;;;11.40;99.90;;;;;;5075554;28;20273;-49
2021/05/22 00:10:15;;;;;;;1.80;1.70;;;11.50;99.90;;;;;;5075683;28;20278;-46
2021/05/22 00:12:43;;;;;;;2.07;1.80;;;11.60;99.90;;;;;;5075881;28;20174;-55
2021/05/22 00:15:11;;;;;;;2.57;1.57;;;11.60;99.90;;;;;;5075472;28;20627;-47
2021/05/22 00:17:37;;;;;;;4.87;1.60;;;11.60;99.90;;;;;;5075839;28;20194;-49
2021/05/22 00:20:04;;;;;;;1.53;1.43;;;11.50;99.90;;;;;;5075141;28;20224;-44
2021/05/22 00:22:30;;;;;;;2.93;1.90;;;11.50;99.90;;;;;;5075030;28;20179;-45
2021/05/22 00:24:55;;;;;;;3.93;1.80;;;11.50;99.90;;;;;;5075194;28;20225;-49
2021/05/22 00:27:21;;;;;;;3.10;1.70;;;11.50;99.90;;;;;;5075082;28;20630;-52
2021/05/22 00:29:46;;;;;;;2.37;1.63;;;11.40;99.90;;;;;;5075674;28;20170;-52
2021/05/22 00:32:12;;;;;;;1.73;1.60;;;11.40;99.90;;;;;;5074910;28;20174;-48
2021/05/22 00:34:38;;;;;;;1.93;1.73;;;11.30;99.90;;;;;;5075019;28;20166;-46
2021/05/22 00:37:03;;;;;;;2.00;1.77;;;11.20;99.90;;;;;;5074925;28;20220;-47
2021/05/22 00:39:29;;;;;;;2.60;1.97;;;11.20;99.90;;;;;;5074769;28;20233;-46
2021/05/22 00:41:54;;;;;;;2.00;1.80;;;11.10;99.90;;;;;;5074643;28;20185;-47
2021/05/22 00:44:20;;;;;;;2.10;1.97;;;11.00;99.90;;;;;;5074777;28;20178;-51
2021/05/22 00:46:46;;;;;;;3.20;1.93;;;10.90;99.90;;;;;;5074972;28;20214;-53
2021/05/22 00:49:11;;;;;;;2.97;1.80;;;10.90;99.90;;;;;;5073790;28;20249;-47
2021/05/22 00:51:38;;;;;;;1.80;1.70;;;10.90;99.90;;;;;;5074692;28;20174;-50
2021/05/22 00:54:04;;;;;;;1.80;1.70;;;10.90;99.90;;;;;;5075206;28;20182;-47
2021/05/22 00:56:30;;;;;;;2.90;1.90;;;10.80;99.90;;;;;;5074565;28;20199;-48
2021/05/22 00:58:56;;;;;;;7.83;2.20;;;10.80;99.90;;;;;;5075018;28;20185;-54
2021/05/22 01:01:21;;;;;;;3.33;1.73;;;10.70;99.90;;;;;;5074282;28;20178;-49
2021/05/22 01:03:52;;;;;;;1.70;1.60;;;10.70;99.90;;;;;;5074511;28;20634;-45
2021/05/22 01:06:24;;;;;;;1.70;1.60;;;10.70;99.90;;;;;;5074333;28;20210;-46
2021/05/22 01:08:52;;;;;;;1.60;1.30;;;10.60;99.90;;;;;;5074786;28;20174;-47
2021/05/22 01:11:49;;;;;;;1.33;1.23;;;10.50;99.90;;;;;;5074143;28;20177;-46
2021/05/22 01:14:26;;;;;;;2.03;1.13;;;10.40;99.90;;;;;;5066482;28;20183;-52
2021/05/22 01:16:54;;;;;;;1.60;1.30;;;10.50;99.90;;;;;;5074242;28;20245;-49
2021/05/22 01:19:34;;;;;;;2.10;1.53;;;10.40;99.90;;;;;;5074260;28;20541;-47
2021/05/22 01:22:00;;;;;;;1.40;1.17;;;10.30;99.90;;;;;;5074048;28;20570;-50
2021/05/22 01:24:28;;;;;;;1.60;1.30;;;10.30;99.90;;;;;;5074722;28;20175;-47
2021/05/22 01:26:54;;;;;;;4.70;1.20;;;10.30;99.90;;;;;;5074094;28;20271;-47
2021/05/22 01:29:20;;;;;;;1.73;1.20;;;10.30;99.90;;;;;;5074115;28;20174;-47
2021/05/22 01:31:46;;;;;;;1.57;1.30;;;10.30;99.90;;;;;;5073873;28;20174;-48
2021/05/22 01:34:11;;;;;;;1.87;0.93;;;10.20;99.90;;;;;;5073867;28;20178;-55
2021/05/22 01:36:37;;;;;;;1.63;0.90;;;10.10;99.90;;;;;;5073876;28;20198;-50
2021/05/22 01:39:03;;;;;;;0.80;0.80;;;10.00;99.90;;;;;;5074109;28;20618;-47
2021/05/22 01:41:29;;;;;;;4.40;0.77;;;9.90;99.90;;;;;;5074259;28;20192;-47
2021/05/22 01:43:58;;;;;;;1.00;0.90;;;9.90;99.90;;;;;;5074150;28;20269;-45
2021/05/22 01:46:26;;;;;;;0.97;0.90;;;9.90;99.90;;;;;;5073964;28;20210;-45
2021/05/22 01:48:52;;;;;;;0.90;0.77;;;9.80;99.90;;;;;;5074398;28;20177;-49
2021/05/22 01:51:20;;;;;;;2.43;0.90;;;9.70;99.90;;;;;;5073776;28;20170;-52
2021/05/22 01:53:47;;;;;;;0.70;0.60;;;9.80;99.90;;;;;;5074059;28;20178;-52
2021/05/22 01:56:14;;;;;;;0.80;0.80;;;10.50;99.90;;;;;;5073655;28;20288;-48
2021/05/22 01:58:40;;;;;;;1.73;0.70;;;9.90;99.90;;;;;;5073620;28;20181;-49
2021/05/22 02:01:11;;;;;;;0.77;0.60;;;9.90;99.90;;;;;;5074102;28;20178;-47
2021/05/22 02:03:41;;;;;;;1.03;0.87;;;9.90;99.90;;;;;;5074006;28;20178;-47
2021/05/22 02:06:14;;;;;;;1.10;0.63;;;10.00;99.90;;;;;;5073699;28;20221;-56
2021/05/22 02:08:43;;;;;;;1.97;1.00;;;10.00;99.90;;;;;;5073915;28;20178;-49
2021/05/22 02:11:09;;;;;;;1.90;0.70;;;10.00;99.90;;;;;;5073400;28;20587;-50
2021/05/22 02:13:37;;;;;;;0.70;0.70;;;10.00;99.90;;;;;;5073572;28;20254;-49
2021/05/22 02:16:04;;;;;;;1.07;0.70;;;10.10;99.90;;;;;;5073551;28;20527;-47
2021/05/22 02:18:33;;;;;;;0.63;0.57;;;10.10;99.90;;;;;;5073562;28;20257;-47
2021/05/22 02:21:01;;;;;;;0.83;0.60;;;10.00;99.90;;;;;;5073349;28;20190;-49
2021/05/22 02:23:29;;;;;;;0.50;0.50;;;10.00;99.90;;;;;;5073424;28;20728;-45
2021/05/22 02:25:57;;;;;;;1.33;0.70;;;10.00;99.90;;;;;;5073772;28;20214;-45
2021/05/22 02:28:27;;;;;;;2.37;0.80;;;10.10;99.90;;;;;;5073781;28;20243;-50
2021/05/22 02:30:53;;;;;;;1.17;0.83;;;10.10;99.90;;;;;;5073341;28;20189;-48
2021/05/22 02:33:19;;;;;;;0.87;0.70;;;10.00;99.90;;;;;;5074094;28;20217;-48
2021/05/22 02:35:46;;;;;;;0.93;0.47;;;10.00;99.90;;;;;;5073610;28;20182;-49
2021/05/22 02:38:21;;;;;;;0.70;0.70;;;9.90;99.90;;;;;;5073257;28;20718;-48
2021/05/22 02:40:49;;;;;;;1.30;0.90;;;9.80;99.90;;;;;;5073215;28;20174;-49
2021/05/22 02:43:15;;;;;;;0.80;0.80;;;9.70;99.90;;;;;;5073271;28;20181;-54
2021/05/22 02:45:44;;;;;;;0.77;0.77;;;9.70;99.90;;;;;;5073831;28;20205;-54
2021/05/22 02:48:14;;;;;;;1.10;0.97;;;9.60;99.90;;;;;;5073585;28;20181;-47
2021/05/22 02:50:43;;;;;;;0.60;0.60;;;9.60;99.90;;;;;;5092038;28;20201;-47
2021/05/22 02:53:11;;;;;;;0.73;0.70;;;9.60;99.90;;;;;;5093334;28;20760;-44
2021/05/22 02:55:37;;;;;;;1.33;0.70;;;9.60;99.90;;;;;;5093830;28;20256;-50
2021/05/22 02:58:04;;;;;;;0.80;0.63;;;9.70;99.90;;;;;;5093432;28;20209;-48
2021/05/22 03:00:31;;;;;;;1.00;0.90;;;9.70;99.90;;;;;;5093366;28;20197;-54
2021/05/22 03:02:57;;;;;;;0.70;0.70;;;9.80;99.90;;;;;;5093244;28;20227;-53
2021/05/22 03:05:23;;;;;;;1.63;0.77;;;9.80;99.90;;;;;;5094103;28;20209;-46
2021/05/22 03:07:48;;;;;;;0.70;0.70;;;9.90;99.90;;;;;;5093668;28;20243;-48
2021/05/22 03:10:15;;;;;;;1.10;1.00;;;10.00;99.90;;;;;;5093310;28;20174;-47
2021/05/22 03:12:41;;;;;;;0.67;0.60;;;10.00;99.90;;;;;;5096347;28;20253;-50
2021/05/22 03:15:08;;;;;;;1.33;0.73;;;9.90;99.90;;;;;;5097234;28;20261;-47
2021/05/22 03:17:34;;;;;;;1.50;0.70;;;10.00;99.90;;;;;;5097162;28;20202;-47
2021/05/22 03:20:00;;;;;;;2.20;0.70;;;10.10;99.90;;;;;;5096570;28;20219;-53
2021/05/22 03:22:25;;;;;;;1.20;0.80;;;10.00;99.90;;;;;;5096815;28;20205;-47
2021/05/22 03:24:51;;;;;;;0.67;0.67;;;9.90;99.90;;;;;;5096737;28;20645;-50
2021/05/22 03:27:16;;;;;;;0.80;0.73;;;9.90;99.90;;;;;;5096845;28;20190;-48
2021/05/22 03:29:42;;;;;;;1.00;0.90;;;9.80;99.90;;;;;;5097210;28;20181;-45
2021/05/22 03:32:07;;;;;;;0.93;0.83;;;9.80;99.90;;;;;;5096308;28;20174;-45
2021/05/22 03:34:33;;;;;;;1.60;1.10;;;9.80;99.90;;;;;;5096567;28;20189;-48
2021/05/22 03:36:59;;;;;;;1.23;1.13;;;9.90;99.90;;;;;;5096704;28;20617;-47
2021/05/22 03:39:24;;;;;;;1.03;0.80;;;9.90;99.90;;;;;;5096481;28;20194;-47
2021/05/22 03:41:50;;;;;;;1.10;0.90;;;9.90;99.90;;;;;;5096453;28;20195;-48
2021/05/22 03:44:16;;;;;;;2.27;1.00;;;9.80;99.90;;;;;;5096912;28;20198;-49
2021/05/22 03:46:41;;;;;;;1.23;0.90;;;9.90;99.90;;;;;;5096088;28;20245;-51
2021/05/22 03:49:07;;;;;;;1.63;0.80;;;9.80;99.90;;;;;;5096186;28;20170;-54
2021/05/22 03:51:32;;;;;;;0.77;0.60;;;9.70;99.90;;;;;;5095866;28;20561;-50
2021/05/22 03:53:58;;;;;;;0.90;0.90;;;9.70;99.90;;;;;;5096463;28;20178;-54
2021/05/22 03:56:24;;;;;;;1.03;0.70;;;9.70;99.90;;;;;;5096158;28;20236;-47
2021/05/22 03:58:50;;;;;;;2.43;0.90;;;9.90;99.90;;;;;;5096636;28;20212;-47
2021/05/22 04:01:16;;;;;;;0.67;0.67;;;10.00;99.90;;;;;;5085734;28;20697;-48
2021/05/22 04:03:41;;;;;;;2.17;1.00;;;10.00;99.90;;;;;;5075880;28;20496;-46
2021/05/22 04:06:07;;;;;;;1.50;1.03;;;10.00;99.90;;;;;;5075746;28;20232;-52
2021/05/22 04:08:32;;;;;;;0.93;0.90;;;9.90;99.90;;;;;;5075647;28;20178;-48
2021/05/22 04:10:59;;;;;;;1.37;0.90;;;9.90;99.90;;;;;;5075914;28;20220;-52
2021/05/22 04:13:25;;;;;;;1.23;1.10;;;9.80;99.90;;;;;;5076172;28;20166;-48
2021/05/22 04:15:50;;;;;;;0.80;0.80;;;9.60;99.90;;;;;;5075388;28;20231;-49
2021/05/22 04:18:16;;;;;;;1.53;1.00;;;9.60;99.90;;;;;;5075457;28;20210;-47
2021/05/22 04:20:42;;;;;;;1.00;0.90;;;9.60;99.90;;;;;;5075860;28;20220;-51
2021/05/22 04:23:07;;;;;;;1.20;0.90;;;9.60;99.90;;;;;;5074984;28;20170;-46
2021/05/22 04:25:33;;;;;;;1.23;1.00;;;9.60;99.90;;;;;;5075397;28;20206;-49
2021/05/22 04:27:58;;;;;;;1.07;0.87;;;9.60;99.90;;;;;;5075696;28;20279;-54
2021/05/22 04:30:24;;;;;;;2.20;1.10;;;9.70;99.90;;;;;;5075314;28;20170;-46
2021/05/22 04:32:50;;;;;;;1.20;1.10;;;9.80;99.90;;;;;;5075026;28;20221;-46
2021/05/22 04:35:16;;;;;;;0.70;0.67;;;9.80;99.90;;;;;;5074938;28;20178;-49
2021/05/22 04:37:42;;;;;;;1.67;1.20;;;9.90;99.90;;;;;;5075063;28;20229;-52
2021/05/22 04:40:08;;;;;;;0.97;0.97;;;10.00;99.90;;;;;;5075523;28;20631;-54
2021/05/22 04:42:34;;;;;;;0.90;0.90;;;10.00;99.90;;;;;;5074818;28;20660;-48
2021/05/22 04:45:01;;;;;;;1.90;1.27;;;10.00;99.90;;;;;;5074684;28;20174;-53
2021/05/22 04:47:27;;;;;;;1.83;0.93;;;10.00;99.90;;;;;;5074834;28;20248;-48
2021/05/22 04:49:52;;;;;;;1.63;1.47;;;10.00;99.90;;;;;;5074850;28;20178;-47
2021/05/22 04:52:21;;;;;;;1.70;1.60;;;10.00;99.90;;;;;;5074679;28;20192;-48
2021/05/22 04:54:46;;;;;;;2.17;1.63;;;10.00;99.90;;;;;;5074636;28;20190;-47
2021/05/22 04:57:12;;;;;;;1.40;1.30;;;10.00;99.90;;;;;;5074731;28;20194;-53
2021/05/22 04:59:37;;;;;;;1.87;1.27;;;10.00;99.90;;;;;;5074659;28;20625;-52
2021/05/22 05:02:03;;;;;;;1.23;1.13;;;10.00;99.90;;;;;;5074469;28;20166;-47
2021/05/22 05:04:28;;;;;;;3.27;1.30;;;10.00;99.90;;;;;;5074682;28;20170;-48
2021/05/22 05:06:54;;;;;;;1.27;1.10;;;10.00;99.90;;;;;;5074547;28;20539;-49
2021/05/22 05:09:20;;;;;;;2.40;1.57;;;9.90;99.90;;;;;;5074563;28;20691;-45
2021/05/22 05:11:46;;;;;;;1.40;1.30;;;9.80;99.90;;;;;;5074493;28;20260;-49
2021/05/22 05:14:11;;;;;;;2.10;1.10;;;9.80;99.90;;;;;;5074434;28;20218;-54
2021/05/22 05:16:37;;;;;;;1.33;1.27;;;9.80;99.90;;;;;;5074348;28;20650;-49
2021/05/22 05:19:03;;;;;;;1.10;1.00;;;9.80;99.90;;;;;;5074335;28;20179;-51
2021/05/22 05:21:28;;;;;;;4.23;1.30;;;9.80;99.90;;;;;;5073917;28;20181;-44
2021/05/22 05:23:54;;;;;;;2.50;1.10;;;9.80;99.90;;;;;;5075091;28;20218;-49
2021/05/22 05:26:19;;;;;;;1.20;1.10;;;9.90;99.90;;;;;;5085750;28;20213;-48
2021/05/22 05:28:45;;;;;;;1.50;1.20;;;9.90;99.90;;;;;;5092184;28;20630;-48
2021/05/22 05:31:11;;;;;;;1.40;1.30;;;9.90;99.90;;;;;;5091586;28;20633;-51
2021/05/22 05:33:36;;;;;;;1.40;1.30;;;9.80;99.90;;;;;;5091056;28;20673;-51
2021/05/22 05:36:02;;;;;;;2.73;1.63;;;9.80;99.90;;;;;;5090527;28;20557;-48
2021/05/22 05:38:27;;;;;;;1.50;1.40;;;9.90;99.90;;;;;;5091061;28;20185;-49
2021/05/22 05:40:55;;;;;;;2.73;1.30;;;9.90;99.90;;;;;;5091637;28;20174;-48
2021/05/22 05:43:21;;;;;;;1.20;1.10;;;9.90;99.90;;;;;;5091448;28;20178;-49
2021/05/22 05:45:47;;;;;;;1.10;1.00;;;9.90;99.90;;;;;;5092039;28;20204;-51
2021/05/22 05:48:12;;;;;;;1.00;1.00;;;9.90;99.90;;;;;;5091795;28;20182;-54
2021/05/22 05:50:38;;;;;;;1.13;1.03;;;9.90;99.90;;;;;;5091753;28;20184;-46
2021/05/22 05:53:04;;;;;;;1.03;1.03;;;10.00;99.90;;;;;;5093544;28;20640;-47
2021/05/22 05:55:29;;;;;;;1.30;1.20;;;10.00;99.90;;;;;;5094516;28;20182;-47
2021/05/22 05:57:58;;;;;;;1.13;1.03;;;10.10;99.90;;;;;;5093959;28;20193;-46
2021/05/22 06:00:24;;;;;;;1.63;1.10;;;10.00;99.90;;;;;;5093910;28;20530;-47
2021/05/22 06:02:50;;;;;;;1.20;1.10;;;9.90;99.90;;;;;;5093821;28;20268;-45
2021/05/22 06:05:16;;;;;;;1.27;1.00;;;9.90;99.90;;;;;;5093748;28;20211;-51
2021/05/22 06:07:42;;;;;;;1.30;1.20;;;9.90;99.90;;;;;;5093811;28;20193;-50
2021/05/22 06:10:08;;;;;;;0.80;0.80;;;9.80;99.90;;;;;;5094550;28;20487;-47
2021/05/22 06:12:34;;;;;;;1.00;0.80;;;9.80;99.90;;;;;;5093909;28;20257;-47
2021/05/22 06:15:10;;;;;;;1.10;1.10;;;9.90;99.90;;;;;;5094004;28;20205;-45
2021/05/22 06:17:36;;;;;;;2.73;1.20;;;9.80;99.90;;;;;;5093998;28;20229;-51
2021/05/22 06:20:03;;;;;;;1.33;1.00;;;9.80;99.90;;;;;;5094243;28;20194;-47
2021/05/22 06:22:28;;;;;;;0.70;0.70;;;9.80;99.90;;;;;;5093647;28;20169;-48
2021/05/22 06:24:54;;;;;;;0.80;0.80;;;9.80;99.90;;;;;;5093869;28;20185;-45
2021/05/22 06:27:19;;;;;;;1.00;1.00;;;9.80;99.90;;;;;;5093828;28;20589;-48
2021/05/22 06:29:45;;;;;;;1.57;1.20;;;9.80;99.90;;;;;;5093949;28;20170;-47
2021/05/22 06:32:10;;;;;;;1.27;1.17;;;9.70;99.90;;;;;;5093474;28;20174;-45
2021/05/22 06:34:36;;;;;;;0.63;0.63;;;9.70;99.90;;;;;;5093571;28;20531;-48
2021/05/22 06:37:01;;;;;;;1.87;1.03;;;9.80;99.90;;;;;;5093472;28;20208;-54
2021/05/22 06:39:27;;;;;;;1.07;1.07;;;9.80;99.90;;;;;;5093416;28;20194;-50
2021/05/22 06:41:53;;;;;;;2.23;1.07;;;9.90;99.90;;;;;;5093553;28;20174;-45
2021/05/22 06:44:24;;;;;;;0.90;0.73;;;10.00;99.90;;;;;;5093510;28;20173;-48
2021/05/22 06:46:50;;;;;;;1.53;1.00;;;10.10;99.90;;;;;;5097580;28;20738;-47
2021/05/22 06:49:16;;;;;;;1.10;0.67;;;10.20;99.90;;;;;;5097953;28;20205;-48
2021/05/22 06:51:42;;;;;;;1.17;1.03;;;10.30;99.90;;;;;;5097121;28;20207;-52
2021/05/22 06:54:07;;;;;;;2.07;0.90;;;10.40;99.90;;;;;;5097471;28;20174;-46
2021/05/22 06:56:33;;;;;;;0.80;0.80;;;10.40;99.90;;;;;;5097091;28;20280;-50
2021/05/22 06:58:59;;;;;;;1.43;0.80;;;10.50;99.90;;;;;;5097481;28;20264;-46
2021/05/22 07:01:25;;;;;;;0.80;0.80;;;10.60;99.90;;;;;;5097561;28;20184;-49
2021/05/22 07:03:50;;;;;;;0.73;0.73;;;10.60;99.90;;;;;;5097175;28;20182;-48
2021/05/22 07:06:16;;;;;;;0.70;0.70;;;10.70;99.90;;;;;;5096950;28;20205;-46
2021/05/22 07:08:42;;;;;;;0.77;0.77;;;10.70;99.90;;;;;;5097311;28;20177;-48
2021/05/22 07:11:08;;;;;;;0.70;0.70;;;10.70;99.90;;;;;;5096944;28;20177;-47
2021/05/22 07:13:33;;;;;;;0.90;0.87;;;10.70;99.90;;;;;;5097031;28;20204;-51
2021/05/22 07:15:59;;;;;;;1.30;0.70;;;10.80;99.90;;;;;;5096780;28;20192;-51
2021/05/22 07:18:24;;;;;;;1.80;0.77;;;10.90;99.90;;;;;;5097174;28;20212;-49
2021/05/22 07:20:50;;;;;;;1.00;0.70;;;11.00;99.90;;;;;;5096916;28;20174;-47
2021/05/22 07:23:15;;;;;;;1.33;0.80;;;11.20;99.90;;;;;;5096698;28;20518;-51
2021/05/22 07:25:41;;;;;;;0.80;0.80;;;11.20;99.90;;;;;;5097040;28;20549;-50
2021/05/22 07:28:08;;;;;;;1.53;0.80;;;11.40;99.90;;;;;;5096615;28;20196;-51
2021/05/22 07:30:33;;;;;;;0.90;0.90;;;11.40;99.90;;;;;;5096696;28;20178;-51
2021/05/22 07:33:00;;;;;;;0.53;0.53;;;11.40;99.90;;;;;;5096600;28;20155;-52
2021/05/22 07:35:26;;;;;;;1.33;0.70;;;11.40;99.90;;;;;;5096373;28;20204;-47
2021/05/22 07:37:52;;;;;;;0.73;0.73;;;11.50;99.90;;;;;;5096229;28;20190;-48
2021/05/22 07:40:18;;;;;;;1.13;1.03;;;11.50;99.90;;;;;;5096510;28;20166;-47
2021/05/22 07:42:48;;;;;;;0.80;0.80;;;11.50;99.90;;;;;;5096845;28;20181;-49
2021/05/22 07:45:15;;;;;;;0.93;0.93;;;11.60;99.90;;;;;;5097022;28;20234;-56
2021/05/22 07:47:41;;;;;;;1.27;0.80;;;11.60;99.90;;;;;;5096664;28;20235;-50
2021/05/22 07:50:07;;;;;;;0.80;0.80;;;11.60;99.90;;;;;;5096082;28;20173;-49
2021/05/22 07:52:33;;;;;;;1.00;0.80;;;11.70;99.90;;;;;;5096017;28;20170;-48
2021/05/22 07:54:59;;;;;;;1.43;0.87;;;11.80;99.90;;;;;;5096462;28;20226;-50
2021/05/22 07:57:24;;;;;;;1.13;0.80;;;12.00;99.90;;;;;;5095310;28;20553;-51
2021/05/22 07:59:50;;;;;;;3.57;0.70;;;12.00;99.90;;;;;;5096494;28;20170;-45
2021/05/22 08:02:16;;;;;;;0.93;0.87;;;12.00;99.90;;;;;;5095737;28;20560;-48
2021/05/22 08:04:42;;;;;;;1.50;0.90;;;12.10;99.90;;;;;;5095870;28;20231;-45
2021/05/22 08:07:08;;;;;;;1.40;0.80;;;12.20;99.90;;;;;;5095551;28;20217;-50
2021/05/22 08:09:33;;;;;;;0.90;0.90;;;12.20;99.90;;;;;;5095674;28;20194;-48
2021/05/22 08:11:59;;;;;;;0.97;0.87;;;12.10;99.90;;;;;;5095510;28;20184;-49
2021/05/22 08:14:25;;;;;;;2.00;0.90;;;12.30;99.90;;;;;;5096168;28;20178;-50
2021/05/22 08:16:50;;;;;;;1.77;0.87;;;12.40;99.90;;;;;;5095569;28;20710;-50
2021/05/22 08:19:16;;;;;;;0.73;0.73;;;12.40;99.90;;;;;;5096372;28;20181;-50
2021/05/22 08:21:42;;;;;;;2.20;0.90;;;12.60;99.90;;;;;;5095220;28;20281;-47
2021/05/22 08:24:09;;;;;;;2.30;1.10;;;12.80;99.90;;;;;;5095941;28;20174;-55
2021/05/22 08:26:37;;;;;;;1.67;0.90;;;12.80;99.90;;;;;;5095313;28;20197;-51
2021/05/22 08:29:03;;;;;;;1.30;0.80;;;12.90;99.90;;;;;;5095407;28;20181;-51
2021/05/22 08:31:29;;;;;;;1.50;0.77;;;12.90;99.90;;;;;;5095993;28;20174;-47
2021/05/22 08:33:55;;;;;;;1.77;0.90;;;12.80;99.90;;;;;;5088856;28;20223;-49
2021/05/22 08:36:20;;;;;;;2.70;0.90;;;12.80;99.90;;;;;;5075176;28;20539;-52
2021/05/22 08:38:46;;;;;;;1.40;1.03;;;12.80;99.90;;;;;;5074897;28;20182;-45
2021/05/22 08:41:11;;;;;;;2.10;0.73;;;12.90;99.90;;;;;;5074952;28;20660;-48
2021/05/22 08:43:37;;;;;;;1.73;0.73;;;13.10;99.90;;;;;;5075473;28;20172;-47
2021/05/22 08:46:08;;;;;;;1.07;0.90;;;13.20;99.90;;;;;;5074938;28;20202;-45
2021/05/22 08:48:34;;;;;;;1.77;1.00;;;13.30;99.90;;;;;;5075678;28;20162;-49
2021/05/22 08:51:00;;;;;;;3.90;1.20;;;13.40;99.90;;;;;;5074483;28;20505;-49
2021/05/22 08:53:26;;;;;;;1.80;0.80;;;13.30;99.90;;;;;;5074866;28;20171;-51
2021/05/22 08:55:51;;;;;;;0.87;0.73;;;13.30;99.90;;;;;;5074478;28;20182;-46
2021/05/22 08:58:17;;;;;;;1.40;0.83;;;13.20;99.90;;;;;;5075228;28;20174;-49
2021/05/22 09:00:43;;;;;;;1.67;0.93;;;13.10;99.90;;;;;;5074460;28;20182;-47
2021/05/22 09:03:11;;;;;;;3.23;1.20;;;13.20;99.90;;;;;;5074544;28;20225;-49
2021/05/22 09:05:38;;;;;;;1.60;1.10;;;13.40;99.90;;;;;;5074213;28;20267;-48
2021/05/22 09:08:06;;;;;;;1.37;0.87;;;13.60;99.90;;;;;;5073780;28;20189;-50
2021/05/22 09:10:37;;;;;;;2.87;1.10;;;13.70;99.90;;;;;;5074682;28;20181;-46
2021/05/22 09:13:08;;;;;;;2.20;0.90;;;13.90;99.90;;;;;;5074361;28;20169;-46
2021/05/22 09:15:37;;;;;;;1.37;1.00;;;13.90;99.90;;;;;;5074570;28;20185;-46
2021/05/22 09:18:10;;;;;;;2.80;1.07;;;13.80;99.90;;;;;;5074131;28;20201;-49
2021/05/22 09:20:39;;;;;;;2.03;0.80;;;13.90;99.90;;;;;;5074289;28;20195;-45
2021/05/22 09:23:08;;;;;;;1.83;1.03;;;14.20;99.90;;;;;;5074383;28;20265;-48
2021/05/22 09:25:54;;;;;;;2.17;0.87;;;14.20;99.90;;;;;;5074071;28;20200;-48
2021/05/22 09:28:27;;;;;;;2.07;0.90;;;14.20;99.90;;;;;;5074374;28;20183;-50
2021/05/22 09:30:53;;;;;;;1.67;0.80;;;14.30;99.90;;;;;;5073989;28;20180;-48
2021/05/22 09:33:27;;;;;;;2.17;0.90;;;14.50;99.90;;;;;;5074064;28;20171;-47
2021/05/22 09:36:00;;;;;;;1.87;0.87;;;14.60;99.90;;;;;;5074174;28;20185;-46
2021/05/22 09:38:54;;;;;;;3.93;1.20;;;14.50;99.90;;;;;;5074286;28;20193;-52
2021/05/22 09:41:32;;;;;;;3.40;0.97;;;14.60;99.90;;;;;;5073019;28;20218;-48
2021/05/22 09:44:04;;;;;;;2.47;0.90;;;14.90;99.90;;;;;;5074397;28;20713;-49
2021/05/22 09:46:30;;;;;;;1.50;0.80;;;14.50;99.90;;;;;;5073796;28;20559;-55
2021/05/22 09:49:03;;;;;;;1.70;0.90;;;14.60;99.90;;;;;;5074653;28;20174;-56
2021/05/22 09:51:29;;;;;;;2.40;1.20;;;14.80;99.90;;;;;;5073495;28;20202;-55
2021/05/22 09:53:54;;;;;;;2.70;1.20;;;15.00;99.90;;;;;;5074414;28;20216;-46
2021/05/22 09:56:22;;;;;;;4.77;1.10;;;15.10;99.90;;;;;;5074162;28;20233;-44
2021/05/22 09:58:49;;;;;;;1.87;1.10;;;15.20;99.90;;;;;;5074583;28;20182;-51
2021/05/22 10:01:17;;;;;;;1.83;1.23;;;15.00;99.90;;;;;;5074475;28;20202;-52
2021/05/22 10:03:43;;;;;;;2.43;1.10;;;14.80;99.90;;;;;;5073621;28;20530;-53
2021/05/22 10:06:09;;;;;;;3.43;1.30;;;14.60;99.90;;;;;;5073450;28;20678;-55
2021/05/22 10:08:35;;;;;;;2.17;1.03;;;14.70;99.90;;;;;;5072893;28;20205;-47
2021/05/22 10:11:02;;;;;;;2.40;1.17;;;14.70;99.90;;;;;;5073863;28;20534;-51
2021/05/22 10:13:28;;;;;;;2.53;0.93;;;14.70;99.90;;;;;;5073735;28;20171;-48
2021/05/22 10:15:56;;;;;;;3.03;1.13;;;14.60;99.90;;;;;;5074219;28;20178;-49
2021/05/22 10:18:24;;;;;;;1.93;1.17;;;14.50;99.90;;;;;;5073881;28;20187;-51
2021/05/22 10:20:51;;;;;;;3.13;1.10;;;14.50;99.90;;;;;;5075661;28;20197;-51
2021/05/22 10:23:18;;;;;;;2.60;1.03;;;14.40;99.90;;;;;;5077624;28;20642;-53
2021/05/22 10:25:46;;;;;;;3.93;1.40;;;14.40;99.90;;;;;;5078229;28;20244;-55
2021/05/22 10:28:12;;;;;;;3.23;1.00;;;14.30;99.90;;;;;;5077721;28;20181;-48
2021/05/22 10:30:38;;;;;;;1.53;1.00;;;14.10;99.90;;;;;;5078446;28;20253;-44
2021/05/22 10:33:06;;;;;;;2.80;0.93;;;14.30;99.90;;;;;;5077457;28;20264;-53
2021/05/22 10:35:40;;;;;;;1.87;0.80;;;14.50;99.90;;;;;;5077093;28;20527;-47
2021/05/22 10:38:06;;;;;;;5.70;1.30;;;14.70;99.90;;;;;;5075860;28;20209;-51
2021/05/22 10:40:46;;;;;;;3.37;0.83;;;14.80;99.90;;;;;;5077188;28;20182;-49
2021/05/22 10:43:13;;;;;;;5.23;1.07;;;15.00;99.90;;;;;;5077453;28;20181;-45
2021/05/22 10:45:41;;;;;;;2.23;0.93;;;15.10;99.90;;;;;;5077497;28;20241;-45
2021/05/22 10:48:09;;;;;;;2.77;1.10;;;15.30;99.90;;;;;;5077404;28;20199;-48
2021/05/22 10:50:41;;;;;;;2.27;0.90;;;15.30;99.90;;;;;;5077134;28;20178;-48
2021/05/22 10:53:23;;;;;;;1.97;0.80;;;15.40;99.90;;;;;;5077767;28;20170;-56
2021/05/22 10:56:16;;;;;;;1.23;0.60;;;15.40;99.90;;;;;;5076967;28;20249;-51
2021/05/22 10:58:57;;;;;;;2.30;1.00;;;15.40;99.90;;;;;;5077489;28;20170;-47
2021/05/22 11:04:17;;;;;;;2.10;1.00;;;15.20;99.90;;;;;;5077272;28;20171;-49
2021/05/22 11:06:57;;;;;;;1.93;0.90;;;15.30;99.90;;;;;;5077035;28;20238;-48
2021/05/22 11:09:25;;;;;;;1.17;0.93;;;15.20;99.90;;;;;;5076874;28;20158;-49
2021/05/22 11:12:04;;;;;;;3.83;1.00;;;15.30;99.90;;;;;;5076817;28;20171;-54
2021/05/22 11:14:39;;;;;;;3.43;1.10;;;15.50;99.90;;;;;;5076748;28;20216;-49
2021/05/22 11:17:20;;;;;;;2.17;0.90;;;15.60;99.90;;;;;;5076984;28;20263;-53
2021/05/22 11:20:02;;;;;;;3.17;0.90;;;15.90;99.90;;;;;;5076920;28;20522;-47
2021/05/22 11:25:52;;;;;;;2.17;0.70;;;16.10;99.90;;;;;;5054560;28;20302;-53
2021/05/22 11:28:22;;;;;;;1.80;0.83;;;16.10;99.90;;;;;;5054347;28;20290;-54
2021/05/22 11:30:53;;;;;;;2.27;0.90;;;16.20;99.90;;;;;;5054720;28;20168;-47
2021/05/22 11:33:21;;;;;;;3.47;0.90;;;16.30;99.90;;;;;;5053785;28;20165;-46
2021/05/22 11:35:51;;;;;;;1.57;0.70;;;16.50;99.90;;;;;;5054188;28;20240;-50
2021/05/22 11:38:22;;;;;;;1.70;0.80;;;16.70;99.90;;;;;;5054071;28;20659;-46
2021/05/22 11:40:52;;;;;;;2.53;1.00;;;16.60;99.90;;;;;;5053945;28;20181;-49
2021/05/22 11:43:18;;;;;;;4.13;0.90;;;16.60;99.90;;;;;;5054569;28;20487;-46
2021/05/22 11:45:57;;;;;;;1.70;0.90;;;16.60;99.90;;;;;;5053963;28;20220;-47
2021/05/22 11:48:27;;;;;;;2.57;0.93;;;16.70;99.90;;;;;;5054000;28;20184;-46
2021/05/22 11:51:03;;;;;;;3.07;0.90;;;16.60;99.90;;;;;;5053686;28;20182;-52
2021/05/22 11:53:30;;;;;;;1.57;0.87;;;16.50;99.90;;;;;;5054241;28;20172;-48
2021/05/22 11:56:01;;;;;;;0.83;0.53;;;16.50;99.90;;;;;;5063761;28;20194;-47
2021/05/22 11:58:28;;;;;;;1.03;0.60;;;16.60;99.90;;;;;;5073827;28;20176;-46
2021/05/22 12:00:54;;;;;;;2.67;0.70;;;16.70;99.90;;;;;;5081712;28;20183;-47
2021/05/22 12:03:23;;;;;;;1.37;0.70;;;16.60;99.90;;;;;;5095976;28;20261;-48
2021/05/22 12:05:49;;;;;;;3.23;0.97;;;16.60;99.90;;;;;;5095834;28;20648;-50
2021/05/22 12:08:16;;;;;;;1.33;0.60;;;16.60;99.90;;;;;;5095723;28;20246;-56
2021/05/22 12:10:41;;;;;;;1.50;0.63;;;16.50;99.90;;;;;;5096220;28;20178;-52
2021/05/22 12:13:07;;;;;;;1.80;0.73;;;16.70;99.90;;;;;;5096386;28;20255;-52
2021/05/22 12:15:33;;;;;;;1.60;0.70;;;16.90;99.90;;;;;;5095889;28;20184;-53
2021/05/22 12:18:05;;;;;;;3.50;0.83;;;16.90;99.60;;;;;;5096692;28;20252;-56
2021/05/22 12:20:53;;;;;;;2.40;0.63;;;16.70;99.80;;;;;;5096394;28;20186;-55
2021/05/22 12:23:34;;;;;;;3.70;0.77;;;16.60;99.90;;;;;;5096193;28;20187;-52
2021/05/22 12:26:00;;;;;;;1.63;0.73;;;16.80;99.90;;;;;;5095898;28;20228;-51
2021/05/22 12:28:27;;;;;;;2.00;0.87;;;17.10;99.90;;;;;;5095707;28;20252;-51
2021/05/22 12:30:55;;;;;;;2.17;0.90;;;17.30;99.90;;;;;;5095376;28;20662;-56
2021/05/22 12:33:20;;;;;;;1.73;0.60;;;17.70;99.90;;;;;;5096100;28;20222;-51
2021/05/22 12:35:59;;;;;;;3.57;0.90;;;17.80;99.90;;;;;;5095548;28;20523;-47
2021/05/22 12:38:37;;;;;;;2.43;0.90;;;17.60;99.90;;;;;;5095512;28;20189;-53
2021/05/22 12:41:03;;;;;;;1.63;0.57;;;17.40;99.70;;;;;;5095143;28;20162;-55
2021/05/22 12:43:50;;;;;;;1.77;0.70;;;17.20;99.80;;;;;;5095153;28;20183;-54
2021/05/22 12:46:46;;;;;;;2.77;0.80;;;17.20;99.90;;;;;;5095699;28;20208;-50
2021/05/22 12:49:15;;;;;;;1.23;0.60;;;17.10;99.90;;;;;;5094689;28;20303;-50
2021/05/22 12:51:43;;;;;;;1.00;0.67;;;16.90;98.90;;;;;;5095068;28;20258;-52
2021/05/22 12:54:37;;;;;;;1.97;0.63;;;16.50;99.90;;;;;;5095794;28;20710;-50
2021/05/22 12:57:10;;;;;;;1.77;0.60;;;16.40;99.90;;;;;;5095721;28;20212;-57
2021/05/22 12:59:38;;;;;;;1.43;0.80;;;16.30;99.60;;;;;;5095583;28;20256;-52